createdAt,value
2023-05-02T00:00:01.760Z,84.1
2023-05-02T00:01:01.919Z,84.1
2023-05-02T00:02:01.461Z,84.1
2023-05-02T00:03:01.980Z,84.1
2023-05-02T00:05:03.429Z,84.1
2023-05-02T00:06:02.258Z,84.2
2023-05-02T00:07:01.800Z,84.2
2023-05-02T00:08:03.838Z,84.3
2023-05-02T00:09:01.685Z,84.3
2023-05-02T00:10:02.370Z,84.3
2023-05-02T00:11:01.601Z,84.3
2023-05-02T00:12:02.094Z,84.3
2023-05-02T00:13:01.529Z,84.4
2023-05-02T00:14:02.017Z,84.4
2023-05-02T00:15:01.545Z,84.4
2023-05-02T00:16:02.002Z,84.5
2023-05-02T00:17:01.517Z,84.5
2023-05-02T00:18:01.995Z,84.4
2023-05-02T00:19:01.356Z,84.5
2023-05-02T00:20:02.263Z,84.5
2023-05-02T00:22:01.768Z,84.6
2023-05-02T00:23:02.245Z,84.6
2023-05-02T00:24:03.448Z,84.7
2023-05-02T00:25:02.205Z,84.7
2023-05-02T00:26:01.689Z,84.7
2023-05-02T00:27:02.180Z,84.7
2023-05-02T00:28:01.628Z,84.7
2023-05-02T00:29:02.088Z,84.7
2023-05-02T00:30:01.849Z,84.7
2023-05-02T00:31:02.041Z,84.7
2023-05-02T00:32:01.561Z,84.7
2023-05-02T00:33:03.670Z,84.7
2023-05-02T00:34:01.473Z,84.7
2023-05-02T00:35:03.523Z,84.7
2023-05-02T00:36:03.045Z,84.7
2023-05-02T00:37:03.446Z,84.7
2023-05-02T00:38:02.243Z,84.7
2023-05-02T00:39:01.767Z,84.7
2023-05-02T00:40:02.445Z,84.7
2023-05-02T00:41:01.691Z,84.7
2023-05-02T00:42:02.216Z,84.7
2023-05-02T00:43:01.606Z,84.6
2023-05-02T00:44:02.215Z,84.6
2023-05-02T00:45:01.604Z,84.6
2023-05-02T00:46:02.121Z,84.6
2023-05-02T00:47:01.529Z,84.7
2023-05-02T00:48:02.095Z,84.9
2023-05-02T00:49:01.540Z,84.9
2023-05-02T00:50:02.560Z,84.8
2023-05-02T00:51:01.451Z,84.8
2023-05-02T00:52:03.612Z,84.6
2023-05-02T00:53:01.389Z,84.6
2023-05-02T00:54:01.861Z,84.6
2023-05-02T00:56:01.768Z,84.8
2023-05-02T00:57:02.300Z,84.8
2023-05-02T00:58:01.692Z,84.8
2023-05-02T00:59:02.167Z,84.8
2023-05-02T01:00:01.991Z,84.7
2023-05-02T01:01:02.179Z,84.8
2023-05-02T01:02:01.660Z,84.8
2023-05-02T01:03:02.304Z,84.8
2023-05-02T01:04:03.356Z,85
2023-05-02T01:05:03.816Z,84.9
2023-05-02T01:06:01.550Z,84.8
2023-05-02T01:07:01.998Z,84.9
2023-05-02T01:08:01.445Z,85
2023-05-02T01:09:02.048Z,85
2023-05-02T01:10:01.669Z,84.8
2023-05-02T01:11:01.941Z,84.8
2023-05-02T01:12:01.357Z,84.7
2023-05-02T01:13:01.929Z,84.6
2023-05-02T01:14:01.372Z,84.8
2023-05-02T01:15:01.881Z,84.9
2023-05-02T01:16:02.394Z,85
2023-05-02T01:17:03.437Z,85.2
2023-05-02T01:18:02.259Z,85.3
2023-05-02T01:19:01.693Z,85.2
2023-05-02T01:20:02.412Z,85.3
2023-05-02T01:21:03.389Z,85.3
2023-05-02T01:22:02.156Z,85.3
2023-05-02T01:23:01.597Z,85.3
2023-05-02T01:24:02.077Z,85.4
2023-05-02T01:25:01.615Z,85.5
2023-05-02T01:26:02.080Z,85.4
2023-05-02T01:27:03.228Z,85.4
2023-05-02T01:28:03.670Z,85.5
2023-05-02T01:29:01.521Z,85.5
2023-05-02T01:30:02.305Z,85.6
2023-05-02T01:31:03.114Z,85.6
2023-05-02T01:32:02.064Z,85.7
2023-05-02T01:33:01.550Z,85.9
2023-05-02T01:34:01.921Z,86
2023-05-02T01:35:01.369Z,85.9
2023-05-02T01:36:01.858Z,86
2023-05-02T01:37:01.389Z,85.9
2023-05-02T01:38:01.862Z,86
2023-05-02T01:39:04.055Z,86
2023-05-02T01:40:02.130Z,85.9
2023-05-02T01:41:02.256Z,85.9
2023-05-02T01:42:03.371Z,85.8
2023-05-02T01:43:02.198Z,85.8
2023-05-02T01:44:01.688Z,85.7
2023-05-02T01:45:02.167Z,85.6
2023-05-02T01:46:01.604Z,85.6
2023-05-02T01:47:03.841Z,85.6
2023-05-02T01:48:01.637Z,85.6
2023-05-02T01:49:02.080Z,85.5
2023-05-02T01:50:01.691Z,85.4
2023-05-02T01:51:02.050Z,85.4
2023-05-02T01:52:01.457Z,85.4
2023-05-02T01:53:01.943Z,85.3
2023-05-02T01:54:01.451Z,85.3
2023-05-02T01:55:01.949Z,85.3
2023-05-02T01:56:03.084Z,85.3
2023-05-02T01:57:01.856Z,85.3
2023-05-02T01:58:01.362Z,85.2
2023-05-02T01:59:01.857Z,85.3
2023-05-02T02:00:02.685Z,85.2
2023-05-02T02:01:01.806Z,85.1
2023-05-02T02:02:02.270Z,85.2
2023-05-02T02:03:01.702Z,85.2
2023-05-02T02:04:02.298Z,85.3
2023-05-02T02:05:03.376Z,85.3
2023-05-02T02:06:02.269Z,85.3
2023-05-02T02:07:02.302Z,85.3
2023-05-02T02:08:01.694Z,85.4
2023-05-02T02:09:03.892Z,85.5
2023-05-02T02:10:01.935Z,85.5
2023-05-02T02:11:02.080Z,85.5
2023-05-02T02:12:01.557Z,85.4
2023-05-02T02:13:02.082Z,85.3
2023-05-02T02:14:01.545Z,85.3
2023-05-02T02:15:01.934Z,85.3
2023-05-02T02:16:01.454Z,85.2
2023-05-02T02:17:02.164Z,85.2
2023-05-02T02:18:01.477Z,85.2
2023-05-02T02:19:01.864Z,85.1
2023-05-02T02:20:02.436Z,85.1
2023-05-02T02:21:01.769Z,85.1
2023-05-02T02:22:03.938Z,85.1
2023-05-02T02:23:01.730Z,85.2
2023-05-02T02:24:02.176Z,85.2
2023-05-02T02:25:01.615Z,85.2
2023-05-02T02:26:02.094Z,85.1
2023-05-02T02:27:03.215Z,85.1
2023-05-02T02:28:02.178Z,85.1
2023-05-02T02:29:01.459Z,85.1
2023-05-02T02:30:02.195Z,85.1
2023-05-02T02:31:01.400Z,85
2023-05-02T02:32:01.858Z,85
2023-05-02T02:33:01.478Z,84.9
2023-05-02T02:34:01.772Z,85
2023-05-02T02:35:03.938Z,85.1
2023-05-02T02:36:01.682Z,85.1
2023-05-02T02:37:02.171Z,85.1
2023-05-02T02:38:03.310Z,85.1
2023-05-02T02:39:02.116Z,85.1
2023-05-02T02:40:01.948Z,85.1
2023-05-02T02:41:02.098Z,85.2
2023-05-02T02:42:03.203Z,85.2
2023-05-02T02:43:02.034Z,85.4
2023-05-02T02:44:01.446Z,85.4
2023-05-02T02:45:01.944Z,85.4
2023-05-02T02:46:01.474Z,85.3
2023-05-02T02:47:01.849Z,85.2
2023-05-02T02:48:01.360Z,85.2
2023-05-02T02:49:01.779Z,85.2
2023-05-02T02:50:02.506Z,85.3
2023-05-02T02:51:03.368Z,85.4
2023-05-02T02:52:03.841Z,85.6
2023-05-02T02:53:01.721Z,85.7
2023-05-02T02:54:04.442Z,85.8
2023-05-02T02:55:01.594Z,85.9
2023-05-02T02:56:02.079Z,85.9
2023-05-02T02:57:03.195Z,85.8
2023-05-02T02:58:02.033Z,85.6
2023-05-02T02:59:01.458Z,85.6
2023-05-02T03:00:03.626Z,85.6
2023-05-02T03:01:01.444Z,85.7
2023-05-02T03:02:02.081Z,85.6
2023-05-02T03:03:01.540Z,85.7
2023-05-02T03:04:01.894Z,85.8
2023-05-02T03:05:02.331Z,85.8
2023-05-02T03:06:01.799Z,85.8
2023-05-02T03:07:02.255Z,85.8
2023-05-02T03:08:01.775Z,85.8
2023-05-02T03:09:02.233Z,85.8
2023-05-02T03:10:02.079Z,85.7
2023-05-02T03:11:02.258Z,85.6
2023-05-02T03:12:02.007Z,85.6
2023-05-02T03:13:01.925Z,85.6
2023-05-02T03:14:01.780Z,85.5
2023-05-02T03:15:02.241Z,85.5
2023-05-02T03:16:01.810Z,85.4
2023-05-02T03:17:02.249Z,85.4
2023-05-02T03:18:01.762Z,85.4
2023-05-02T03:19:02.165Z,85.4
2023-05-02T03:20:01.868Z,85.4
2023-05-02T03:21:03.764Z,85.5
2023-05-02T03:22:01.534Z,85.5
2023-05-02T03:23:02.006Z,85.6
2023-05-02T03:24:01.523Z,85.7
2023-05-02T03:25:01.998Z,85.7
2023-05-02T03:26:03.118Z,85.6
2023-05-02T03:27:01.956Z,85.6
2023-05-02T03:28:01.351Z,85.6
2023-05-02T03:29:01.922Z,85.5
2023-05-02T03:30:01.595Z,85.5
2023-05-02T03:31:03.614Z,85.6
2023-05-02T03:32:02.424Z,85.6
2023-05-02T03:33:01.837Z,85.6
2023-05-02T03:34:02.237Z,85.7
2023-05-02T03:35:01.750Z,85.7
2023-05-02T03:36:02.231Z,85.8
2023-05-02T03:37:03.462Z,85.8
2023-05-02T03:38:02.170Z,85.8
2023-05-02T03:39:01.612Z,85.8
2023-05-02T03:40:02.372Z,85.9
2023-05-02T03:41:01.605Z,86
2023-05-02T03:42:02.088Z,86
2023-05-02T03:43:01.559Z,86.1
2023-05-02T03:44:03.696Z,86.1
2023-05-02T03:45:03.123Z,86.2
2023-05-02T03:46:01.913Z,86.2
2023-05-02T03:47:01.488Z,86.2
2023-05-02T03:48:03.662Z,86.3
2023-05-02T03:49:01.363Z,86.3
2023-05-02T03:50:02.102Z,86.4
2023-05-02T03:51:01.388Z,86.5
2023-05-02T03:52:01.856Z,86.5
2023-05-02T03:53:02.332Z,86.6
2023-05-02T03:54:01.773Z,86.6
2023-05-02T03:55:02.262Z,86.6
2023-05-02T03:56:01.705Z,86.6
2023-05-02T03:57:02.253Z,86.6
2023-05-02T03:58:01.690Z,86.6
2023-05-02T03:59:03.838Z,86.6
2023-05-02T04:00:03.409Z,86.6
2023-05-02T04:01:02.104Z,86.6
2023-05-02T04:02:01.654Z,86.5
2023-05-02T04:03:02.136Z,86.5
2023-05-02T04:04:01.561Z,86.5
2023-05-02T04:05:01.999Z,86.4
2023-05-02T04:06:03.282Z,86.4
2023-05-02T04:07:02.007Z,86.3
2023-05-02T04:08:01.608Z,86.3
2023-05-02T04:09:02.170Z,86.3
2023-05-02T04:10:02.464Z,86.3
2023-05-02T04:11:01.524Z,86.3
2023-05-02T04:12:02.187Z,86.4
2023-05-02T04:13:01.767Z,86.4
2023-05-02T04:14:03.513Z,86.3
2023-05-02T04:15:02.323Z,86.3
2023-05-02T04:16:01.765Z,86.3
2023-05-02T04:17:02.320Z,86.3
2023-05-02T04:18:03.477Z,86.3
2023-05-02T04:19:01.521Z,86.3
2023-05-02T04:20:05.071Z,86.4
2023-05-02T04:21:01.842Z,86.4
2023-05-02T04:22:01.950Z,86.4
2023-05-02T04:23:03.039Z,86.4
2023-05-02T04:24:01.853Z,86.4
2023-05-02T04:25:02.335Z,86.4
2023-05-02T04:26:01.759Z,86.5
2023-05-02T04:27:03.960Z,86.5
2023-05-02T04:28:01.716Z,86.5
2023-05-02T04:29:03.844Z,86.5
2023-05-02T04:30:01.914Z,86.5
2023-05-02T04:31:02.118Z,86.5
2023-05-02T04:32:01.545Z,86.4
2023-05-02T04:33:03.746Z,86.2
2023-05-02T04:34:01.442Z,86.1
2023-05-02T04:35:01.972Z,86
2023-05-02T04:36:01.365Z,86
2023-05-02T04:37:01.837Z,86
2023-05-02T04:38:01.364Z,86.1
2023-05-02T04:39:01.886Z,86
2023-05-02T04:40:02.470Z,86
2023-05-02T04:41:08.548Z,85.9
2023-05-02T04:42:03.848Z,85.9
2023-05-02T04:43:03.401Z,85.9
2023-05-02T04:44:02.154Z,85.8
2023-05-02T04:45:01.591Z,85.8
2023-05-02T04:46:02.116Z,85.8
2023-05-02T04:47:01.522Z,85.8
2023-05-02T04:48:02.091Z,85.7
2023-05-02T04:49:01.459Z,85.7
2023-05-02T04:50:02.201Z,85.7
2023-05-02T04:51:03.122Z,85.7
2023-05-02T04:52:01.844Z,85.7
2023-05-02T04:53:01.359Z,85.6
2023-05-02T04:54:01.851Z,85.7
2023-05-02T04:55:02.321Z,85.7
2023-05-02T04:56:01.758Z,85.8
2023-05-02T04:57:02.257Z,85.8
2023-05-02T04:58:01.679Z,85.8
2023-05-02T04:59:02.172Z,85.8
2023-05-02T05:00:01.890Z,85.7
2023-05-02T05:01:02.146Z,85.9
2023-05-02T05:02:02.474Z,85.9
2023-05-02T05:03:02.163Z,85.9
2023-05-02T05:04:01.477Z,86
2023-05-02T05:05:01.905Z,86
2023-05-02T05:06:03.119Z,86.1
2023-05-02T05:07:02.074Z,86.1
2023-05-02T05:08:01.520Z,85.9
2023-05-02T05:09:02.084Z,85.9
2023-05-02T05:10:01.988Z,85.9
2023-05-02T05:11:02.198Z,85.8
2023-05-02T05:12:01.694Z,85.7
2023-05-02T05:13:02.169Z,85.6
2023-05-02T05:14:01.680Z,85.5
2023-05-02T05:15:03.840Z,85.5
2023-05-02T05:16:03.336Z,85.5
2023-05-02T05:17:02.159Z,85.4
2023-05-02T05:18:01.711Z,85.4
2023-05-02T05:19:03.840Z,85.3
2023-05-02T05:20:01.953Z,85.2
2023-05-02T05:21:01.608Z,85.1
2023-05-02T05:22:02.288Z,85.1
2023-05-02T05:23:01.744Z,85
2023-05-02T05:24:02.271Z,84.9
2023-05-02T05:25:03.443Z,84.6
2023-05-02T05:26:01.362Z,84.6
2023-05-02T05:27:02.042Z,84.7
2023-05-02T05:28:01.606Z,84.7
2023-05-02T05:29:03.781Z,84.6
2023-05-02T05:30:02.586Z,84.3
2023-05-02T05:31:01.692Z,84.2
2023-05-02T05:32:02.308Z,84
2023-05-02T05:33:01.760Z,84.1
2023-05-02T05:34:02.204Z,83.8
2023-05-02T05:35:01.598Z,83.9
2023-05-02T05:36:02.091Z,84
2023-05-02T05:37:03.208Z,83.9
2023-05-02T05:38:02.091Z,84
2023-05-02T05:39:01.524Z,83.9
2023-05-02T05:40:02.517Z,83.9
2023-05-02T05:41:01.506Z,83.9
2023-05-02T05:42:02.006Z,83.8
2023-05-02T05:43:01.472Z,83.9
2023-05-02T05:44:01.917Z,84
2023-05-02T05:45:01.616Z,84.1
2023-05-02T05:46:03.848Z,84.1
2023-05-02T05:47:01.727Z,83.9
2023-05-02T05:48:01.513Z,83.9
2023-05-02T05:49:02.104Z,83.9
2023-05-02T05:50:01.885Z,83.8
2023-05-02T05:51:02.244Z,83.7
2023-05-02T05:52:01.773Z,83.6
2023-05-02T05:53:02.364Z,83.6
2023-05-02T05:54:01.951Z,83.6
2023-05-02T05:55:01.922Z,83.6
2023-05-02T05:56:01.543Z,83.8
2023-05-02T05:57:02.162Z,84
2023-05-02T05:58:01.705Z,84.1
2023-05-02T05:59:02.185Z,84.2
2023-05-02T06:00:02.354Z,84.3
2023-05-02T06:01:03.397Z,84.4
2023-05-02T06:02:01.607Z,84.5
2023-05-02T06:03:02.390Z,84.6
2023-05-02T06:04:02.104Z,84.5
2023-05-02T06:05:01.905Z,84.5
2023-05-02T06:06:01.420Z,84.6
2023-05-02T06:07:01.960Z,84.7
2023-05-02T06:08:03.466Z,84.7
2023-05-02T06:09:01.504Z,84.6
2023-05-02T06:10:02.340Z,84.8
2023-05-02T06:11:01.543Z,84.9
2023-05-02T06:12:02.030Z,84.9
2023-05-02T06:13:01.546Z,84.9
2023-05-02T06:14:02.027Z,85
2023-05-02T06:15:01.680Z,85
2023-05-02T06:16:03.866Z,85
2023-05-02T06:17:01.710Z,85.1
2023-05-02T06:18:02.199Z,85
2023-05-02T06:19:01.686Z,84.8
2023-05-02T06:20:03.940Z,84.6
2023-05-02T06:21:01.957Z,84.8
2023-05-02T06:22:01.366Z,84.9
2023-05-02T06:23:02.103Z,84.9
2023-05-02T06:24:03.306Z,84.8
2023-05-02T06:25:02.263Z,84.8
2023-05-02T06:26:01.786Z,84.5
2023-05-02T06:27:02.334Z,84.1
2023-05-02T06:28:03.618Z,84
2023-05-02T06:29:01.485Z,84.3
2023-05-02T06:30:02.591Z,84.6
2023-05-02T06:31:01.636Z,84.9
2023-05-02T06:32:03.776Z,85
2023-05-02T06:33:01.572Z,85
2023-05-02T06:34:02.047Z,84.9
2023-05-02T06:35:01.440Z,84.7
2023-05-02T06:36:03.940Z,84.3
2023-05-02T06:37:01.860Z,84.3
2023-05-02T06:38:02.343Z,84.5
2023-05-02T06:39:01.827Z,84.6
2023-05-02T06:40:02.599Z,84.4
2023-05-02T06:41:01.716Z,84.3
2023-05-02T06:42:03.926Z,84.3
2023-05-02T06:43:01.744Z,84.3
2023-05-02T06:44:02.158Z,84.3
2023-05-02T06:45:03.257Z,84.4
2023-05-02T06:46:03.768Z,84.5
2023-05-02T06:47:03.228Z,84.4
2023-05-02T06:48:03.764Z,84.5
2023-05-02T06:49:03.113Z,84.7
2023-05-02T06:50:03.733Z,84.8
2023-05-02T06:51:01.362Z,85
2023-05-02T06:52:01.845Z,85.1
2023-05-02T06:54:01.776Z,85
2023-05-02T06:55:02.252Z,84.6
2023-05-02T06:56:01.751Z,84.6
2023-05-02T06:57:02.242Z,84.7
2023-05-02T06:58:01.684Z,84.9
2023-05-02T06:59:02.195Z,85
2023-05-02T07:00:02.070Z,85.2
2023-05-02T07:01:03.817Z,85.1
2023-05-02T07:02:04.441Z,84.9
2023-05-02T07:03:02.033Z,84.8
2023-05-02T07:04:01.569Z,84.8
2023-05-02T07:05:02.024Z,84.6
2023-05-02T07:06:01.571Z,84.5
2023-05-02T07:07:02.007Z,84.3
2023-05-02T07:08:03.203Z,84.2
2023-05-02T07:09:01.935Z,84.4
2023-05-02T07:10:01.657Z,84.3
2023-05-02T07:11:01.949Z,83.7
2023-05-02T07:12:05.316Z,83.6
2023-05-02T07:13:01.849Z,83.7
2023-05-02T07:14:02.340Z,83.7
2023-05-02T07:15:01.788Z,83.7
2023-05-02T07:16:02.300Z,83.8
2023-05-02T07:17:01.928Z,83.8
2023-05-02T07:18:03.951Z,84.2
2023-05-02T07:19:03.369Z,84.4
2023-05-02T07:20:02.447Z,84.5
2023-05-02T07:21:01.643Z,84
2023-05-02T07:22:02.159Z,83.8
2023-05-02T07:23:01.617Z,84
2023-05-02T07:24:02.083Z,84.1
2023-05-02T07:25:01.620Z,83.8
2023-05-02T07:26:06.161Z,83.2
2023-05-02T07:27:01.525Z,83.4
2023-05-02T07:28:02.025Z,83.1
2023-05-02T07:29:01.532Z,82.9
2023-05-02T07:30:03.787Z,82.7
2023-05-02T07:31:01.457Z,82.9
2023-05-02T07:32:02.046Z,83.4
2023-05-02T07:33:01.508Z,83.6
2023-05-02T07:34:01.860Z,83.3
2023-05-02T07:35:01.377Z,83.2
2023-05-02T07:36:01.853Z,83.7
2023-05-02T07:37:04.022Z,84
2023-05-02T07:38:01.782Z,83.7
2023-05-02T07:39:02.258Z,83.5
2023-05-02T07:40:02.118Z,83.6
2023-05-02T07:41:04.031Z,83.6
2023-05-02T07:42:03.048Z,83.8
2023-05-02T07:43:03.488Z,84
2023-05-02T07:44:02.256Z,83.9
2023-05-02T07:45:01.698Z,83.9
2023-05-02T07:46:03.921Z,84
2023-05-02T07:47:01.692Z,84
2023-05-02T07:48:02.138Z,84.4
2023-05-02T07:49:01.632Z,84.5
2023-05-02T07:50:02.367Z,84.5
2023-05-02T07:51:01.536Z,84.5
2023-05-02T07:52:02.016Z,84.1
2023-05-02T07:53:01.467Z,83.8
2023-05-02T07:54:01.955Z,83.6
2023-05-02T07:55:01.443Z,83.9
2023-05-02T07:56:01.856Z,83.6
2023-05-02T07:57:02.987Z,83.4
2023-05-02T07:58:01.772Z,83.5
2023-05-02T07:59:03.573Z,83.1
2023-05-02T08:00:02.306Z,83.2
2023-05-02T08:01:02.201Z,83.4
2023-05-02T08:02:03.302Z,83.1
2023-05-02T08:03:02.200Z,83.2
2023-05-02T08:04:01.840Z,83.3
2023-05-02T08:05:02.183Z,83.1
2023-05-02T08:06:01.565Z,83.1
2023-05-02T08:07:02.038Z,83.1
2023-05-02T08:08:03.139Z,82.8
2023-05-02T08:09:01.940Z,82.5
2023-05-02T08:10:01.702Z,83.1
2023-05-02T08:11:01.861Z,82.2
2023-05-02T08:12:01.305Z,81.6
2023-05-02T08:13:01.786Z,81.1
2023-05-02T08:14:02.254Z,80.8
2023-05-02T08:15:01.720Z,80.8
2023-05-02T08:16:02.222Z,80.3
2023-05-02T08:17:01.680Z,80.2
2023-05-02T08:18:02.164Z,79.6
2023-05-02T08:19:01.604Z,80.9
2023-05-02T08:20:02.339Z,80.5
2023-05-02T08:21:01.572Z,79.3
2023-05-02T08:22:02.012Z,78.7
2023-05-02T08:23:01.464Z,78.7
2023-05-02T08:24:02.188Z,77.3
2023-05-02T08:25:01.372Z,77.4
2023-05-02T08:26:03.557Z,77.6
2023-05-02T08:27:01.295Z,78
2023-05-02T08:28:01.776Z,78.2
2023-05-02T08:29:02.257Z,77.8
2023-05-02T08:30:01.790Z,78.7
2023-05-02T08:31:02.201Z,78.8
2023-05-02T08:32:03.336Z,78.3
2023-05-02T08:33:02.154Z,76.3
2023-05-02T08:34:01.604Z,75.2
2023-05-02T08:35:02.102Z,76.2
2023-05-02T08:36:01.547Z,76.9
2023-05-02T08:37:02.053Z,77.4
2023-05-02T08:38:01.479Z,76.9
2023-05-02T08:39:03.696Z,76.8
2023-05-02T08:40:01.730Z,77.2
2023-05-02T08:41:03.638Z,76
2023-05-02T08:42:01.367Z,75.4
2023-05-02T08:43:01.894Z,76
2023-05-02T08:44:02.331Z,77.3
2023-05-02T08:45:01.843Z,76.1
2023-05-02T08:46:03.050Z,76.6
2023-05-02T08:47:03.477Z,73.3
2023-05-02T08:48:02.291Z,74
2023-05-02T08:49:01.701Z,73.3
2023-05-02T08:50:02.526Z,73.1
2023-05-02T08:51:01.680Z,73.1
2023-05-02T08:52:02.188Z,72.9
2023-05-02T08:53:01.628Z,73.1
2023-05-02T08:54:02.095Z,74.3
2023-05-02T08:55:02.132Z,75
2023-05-02T08:56:02.013Z,75.2
2023-05-02T08:57:01.542Z,76.8
2023-05-02T08:58:02.037Z,76.8
2023-05-02T08:59:01.455Z,77
2023-05-02T09:00:01.925Z,77.1
2023-05-02T09:01:01.437Z,74.5
2023-05-02T09:02:01.888Z,74.7
2023-05-02T09:03:03.193Z,74.4
2023-05-02T09:04:01.783Z,75.9
2023-05-02T09:05:02.553Z,76
2023-05-02T09:06:01.855Z,76.3
2023-05-02T09:07:02.242Z,76.5
2023-05-02T09:08:01.767Z,75.5
2023-05-02T09:09:02.260Z,74.6
2023-05-02T09:10:01.713Z,75.1
2023-05-02T09:11:02.252Z,72.5
2023-05-02T09:12:03.370Z,72.2
2023-05-02T09:13:03.999Z,72.1
2023-05-02T09:14:01.690Z,72.8
2023-05-02T09:15:02.173Z,73.9
2023-05-02T09:16:01.683Z,74.8
2023-05-02T09:17:02.314Z,72.1
2023-05-02T09:18:03.381Z,72.2
2023-05-02T09:19:02.248Z,72.3
2023-05-02T09:20:03.477Z,72.7
2023-05-02T09:21:02.233Z,72.1
2023-05-02T09:22:03.531Z,72.5
2023-05-02T09:23:01.519Z,71.8
2023-05-02T09:24:03.706Z,71.1
2023-05-02T09:25:01.913Z,71.1
2023-05-02T09:26:02.186Z,71.1
2023-05-02T09:27:01.757Z,72
2023-05-02T09:28:03.921Z,71.4
2023-05-02T09:29:01.934Z,72.9
2023-05-02T09:30:01.365Z,72.5
2023-05-02T09:31:02.167Z,71.8
2023-05-02T09:32:03.232Z,71.5
2023-05-02T09:33:03.650Z,71.8
2023-05-02T09:34:01.527Z,72.2
2023-05-02T09:35:02.204Z,71.8
2023-05-02T09:36:01.594Z,71.6
2023-05-02T09:37:03.714Z,71.7
2023-05-02T09:38:01.569Z,71.5
2023-05-02T09:39:02.157Z,72.2
2023-05-02T09:40:02.523Z,70.4
2023-05-02T09:41:01.841Z,71.3
2023-05-02T09:42:04.090Z,71.6
2023-05-02T09:43:01.929Z,69.4
2023-05-02T09:44:03.069Z,69.8
2023-05-02T09:45:02.161Z,70.4
2023-05-02T09:46:01.524Z,69.9
2023-05-02T09:47:02.001Z,69.8
2023-05-02T09:48:01.519Z,69.3
2023-05-02T09:49:01.927Z,71.5
2023-05-02T09:50:01.620Z,69.8
2023-05-02T09:51:02.188Z,70.6
2023-05-02T09:52:01.820Z,69.1
2023-05-02T09:53:01.534Z,69
2023-05-02T09:54:02.149Z,69.4
2023-05-02T09:55:01.901Z,69
2023-05-02T09:56:01.606Z,70.2
2023-05-02T09:57:02.043Z,70.5
2023-05-02T09:58:01.460Z,68.8
2023-05-02T09:59:01.935Z,69.2
2023-05-02T10:00:01.386Z,68.9
2023-05-02T10:01:01.911Z,70.3
2023-05-02T10:03:01.845Z,70.6
2023-05-02T10:04:02.315Z,70
2023-05-02T10:05:01.999Z,68.9
2023-05-02T10:06:03.893Z,69.7
2023-05-02T10:07:01.693Z,69.6
2023-05-02T10:08:02.326Z,69.5
2023-05-02T10:09:01.598Z,69.1
2023-05-02T10:10:02.088Z,69.9
2023-05-02T10:11:03.202Z,68.4
2023-05-02T10:12:02.014Z,69.4
2023-05-02T10:13:01.501Z,69.6
2023-05-02T10:14:01.927Z,69.5
2023-05-02T10:15:01.737Z,67.8
2023-05-02T10:16:01.918Z,68.9
2023-05-02T10:17:01.456Z,68.2
2023-05-02T10:18:01.917Z,67.1
2023-05-02T10:19:02.239Z,67.9
2023-05-02T10:20:01.785Z,70.1
2023-05-02T10:21:02.259Z,68.8
2023-05-02T10:22:01.693Z,67.1
2023-05-02T10:23:02.214Z,67
2023-05-02T10:24:01.608Z,66.4
2023-05-02T10:25:02.354Z,67
2023-05-02T10:26:01.517Z,68
2023-05-02T10:27:02.010Z,65.9
2023-05-02T10:28:01.572Z,66.1
2023-05-02T10:29:02.019Z,66.5
2023-05-02T10:30:03.120Z,66.8
2023-05-02T10:31:01.961Z,66.7
2023-05-02T10:32:01.506Z,67
2023-05-02T10:33:01.933Z,68
2023-05-02T10:34:02.350Z,67.8
2023-05-02T10:35:02.029Z,65.2
2023-05-02T10:36:02.233Z,66.2
2023-05-02T10:37:01.680Z,66.3
2023-05-02T10:38:03.852Z,66.4
2023-05-02T10:39:03.310Z,66.5
2023-05-02T10:40:02.122Z,67.3
2023-05-02T10:41:03.298Z,66.7
2023-05-02T10:42:02.097Z,66.5
2023-05-02T10:43:03.205Z,67.3
2023-05-02T10:44:02.014Z,67.6
2023-05-02T10:45:01.758Z,67.4
2023-05-02T10:46:03.606Z,67.2
2023-05-02T10:47:01.525Z,67.5
2023-05-02T10:48:01.917Z,67.5
2023-05-02T10:49:01.379Z,67.6
2023-05-02T10:50:03.442Z,66.5
2023-05-02T10:51:02.249Z,67.2
2023-05-02T10:52:01.755Z,67.3
2023-05-02T10:53:02.262Z,67.5
2023-05-02T10:54:01.685Z,67.9
2023-05-02T10:55:02.279Z,67.4
2023-05-02T10:56:01.598Z,67.9
2023-05-02T10:57:02.107Z,67.5
2023-05-02T10:58:03.283Z,67.9
2023-05-02T10:59:03.766Z,67.6
2023-05-02T11:00:01.525Z,67.7
2023-05-02T11:01:02.092Z,69
2023-05-02T11:02:04.025Z,68.4
2023-05-02T11:03:02.837Z,68.8
2023-05-02T11:04:01.904Z,68
2023-05-02T11:05:02.698Z,67.8
2023-05-02T11:06:01.694Z,69
2023-05-02T11:07:03.925Z,69.8
2023-05-02T11:08:01.615Z,70.3
2023-05-02T11:09:02.156Z,68.5
2023-05-02T11:10:03.391Z,69
2023-05-02T11:11:03.840Z,69
2023-05-02T11:12:01.673Z,69.2
2023-05-02T11:13:04.082Z,69.5
2023-05-02T11:14:01.924Z,69.8
2023-05-02T11:15:01.658Z,70.3
2023-05-02T11:16:01.995Z,70.7
2023-05-02T11:17:03.235Z,70.5
2023-05-02T11:18:02.022Z,70.1
2023-05-02T11:19:01.583Z,69.9
2023-05-02T11:20:02.083Z,69.4
2023-05-02T11:21:01.616Z,69.7
2023-05-02T11:22:02.076Z,69.5
2023-05-02T11:23:01.592Z,69.6
2023-05-02T11:24:02.065Z,70.7
2023-05-02T11:25:01.912Z,69.9
2023-05-02T11:26:02.065Z,69.7
2023-05-02T11:27:03.261Z,68.7
2023-05-02T11:28:02.072Z,69.9
2023-05-02T11:29:01.533Z,69.3
2023-05-02T11:30:03.836Z,69.9
2023-05-02T11:31:03.300Z,69.4
2023-05-02T11:32:02.106Z,67.9
2023-05-02T11:33:01.605Z,68.9
2023-05-02T11:34:02.136Z,68.6
2023-05-02T11:35:03.313Z,68.6
2023-05-02T11:36:03.771Z,67.9
2023-05-02T11:37:01.588Z,68.1
2023-05-02T11:38:02.141Z,68.6
2023-05-02T11:39:01.786Z,68.9
2023-05-02T11:40:02.252Z,67.4
2023-05-02T11:41:01.746Z,68
2023-05-02T11:42:02.226Z,66.9
2023-05-02T11:43:01.751Z,66.7
2023-05-02T11:44:02.305Z,66.5
2023-05-02T11:45:02.103Z,66.7
2023-05-02T11:46:01.590Z,67.9
2023-05-02T11:47:01.874Z,67.9
2023-05-02T11:48:03.077Z,66
2023-05-02T11:49:01.851Z,66.8
2023-05-02T11:50:01.288Z,65.9
2023-05-02T11:51:03.477Z,66.4
2023-05-02T11:52:01.390Z,65.8
2023-05-02T11:53:01.852Z,66
2023-05-02T11:55:02.095Z,66
2023-05-02T11:56:01.366Z,63.4
2023-05-02T11:57:01.873Z,63.6
2023-05-02T11:58:01.534Z,63.2
2023-05-02T11:59:02.167Z,64.2
2023-05-02T12:00:01.764Z,63.2
2023-05-02T12:01:03.944Z,65.5
2023-05-02T12:02:01.846Z,64.2
2023-05-02T12:03:01.456Z,62.8
2023-05-02T12:04:01.971Z,63.6
2023-05-02T12:05:01.753Z,63.7
2023-05-02T12:06:02.198Z,63.4
2023-05-02T12:07:03.202Z,63.8
2023-05-02T12:08:02.099Z,64.1
2023-05-02T12:09:01.620Z,65.1
2023-05-02T12:10:02.257Z,65.1
2023-05-02T12:11:03.794Z,65
2023-05-02T12:12:02.193Z,65.6
2023-05-02T12:13:01.614Z,65.7
2023-05-02T12:14:03.760Z,65.1
2023-05-02T12:15:01.818Z,66
2023-05-02T12:16:02.121Z,65.6
2023-05-02T12:17:03.153Z,66
2023-05-02T12:18:02.000Z,64.8
2023-05-02T12:19:01.484Z,64.8
2023-05-02T12:20:01.870Z,65.8
2023-05-02T12:21:01.372Z,65.5
2023-05-02T12:22:01.774Z,64.8
2023-05-02T12:23:02.253Z,65
2023-05-02T12:24:01.810Z,66.9
2023-05-02T12:25:04.514Z,64.7
2023-05-02T12:26:01.682Z,64.9
2023-05-02T12:27:02.184Z,65.4
2023-05-02T12:28:01.608Z,64.7
2023-05-02T12:29:02.140Z,64.6
2023-05-02T12:30:01.896Z,66.1
2023-05-02T12:31:03.729Z,65.9
2023-05-02T12:32:01.575Z,64.8
2023-05-02T12:33:02.044Z,66.2
2023-05-02T12:34:01.660Z,65.4
2023-05-02T12:35:03.806Z,64.5
2023-05-02T12:36:01.365Z,65.8
2023-05-02T12:37:03.669Z,65.2
2023-05-02T12:38:01.368Z,64.7
2023-05-02T12:39:01.849Z,65
2023-05-02T12:40:02.653Z,63.8
2023-05-02T12:41:01.774Z,64.4
2023-05-02T12:42:04.004Z,64.7
2023-05-02T12:43:03.375Z,65.1
2023-05-02T12:44:03.882Z,64.3
2023-05-02T12:45:01.598Z,64.7
2023-05-02T12:46:02.087Z,62.9
2023-05-02T12:47:03.367Z,61
2023-05-02T12:48:03.766Z,61.8
2023-05-02T12:49:01.567Z,61.3
2023-05-02T12:50:02.229Z,61.8
2023-05-02T12:51:01.475Z,62.6
2023-05-02T12:52:01.930Z,62.4
2023-05-02T12:53:01.390Z,59.8
2023-05-02T12:54:01.855Z,61.1
2023-05-02T12:55:01.389Z,61.7
2023-05-02T12:56:03.450Z,60.8
2023-05-02T12:57:02.250Z,60.5
2023-05-02T12:58:01.765Z,59.9
2023-05-02T12:59:02.236Z,60.8
2023-05-02T13:00:01.996Z,61.3
2023-05-02T13:01:02.232Z,60.8
2023-05-02T13:02:01.649Z,61.1
2023-05-02T13:03:02.112Z,60.1
2023-05-02T13:04:01.626Z,59.8
2023-05-02T13:05:02.084Z,58.6
2023-05-02T13:06:01.678Z,59.5
2023-05-02T13:07:03.825Z,59.8
2023-05-02T13:08:01.537Z,58.7
2023-05-02T13:09:02.075Z,59.2
2023-05-02T13:10:01.827Z,59.9
2023-05-02T13:11:03.631Z,60.4
2023-05-02T13:12:01.435Z,60.3
2023-05-02T13:13:01.902Z,59.2
2023-05-02T13:14:01.455Z,60.5
2023-05-02T13:15:01.949Z,59.5
2023-05-02T13:16:01.505Z,60.2
2023-05-02T13:17:02.034Z,60.6
2023-05-02T13:18:01.531Z,60.4
2023-05-02T13:19:03.600Z,60.3
2023-05-02T13:20:04.278Z,60.8
2023-05-02T13:21:01.844Z,61.5
2023-05-02T13:22:02.371Z,60.8
2023-05-02T13:23:01.786Z,60.1
2023-05-02T13:24:02.286Z,60.4
2023-05-02T13:25:01.689Z,61.4
2023-05-02T13:26:02.182Z,62
2023-05-02T13:27:03.284Z,61.1
2023-05-02T13:28:02.109Z,60.4
2023-05-02T13:29:03.285Z,60.7